createdAt,value
2023-01-11T00:00:26.518Z,0.98
2023-01-11T00:03:00.837Z,1.00
2023-01-11T00:05:27.665Z,1.30
2023-01-11T00:07:54.352Z,1.13
2023-01-11T00:10:21.207Z,1.20
2023-01-11T00:12:47.859Z,2.03
2023-01-11T00:15:14.723Z,0.80
2023-01-11T00:17:41.930Z,0.70
2023-01-11T00:20:10.344Z,0.77
2023-01-11T00:22:37.178Z,1.30
2023-01-11T00:25:04.379Z,0.73
2023-01-11T00:27:31.117Z,0.70
2023-01-11T00:29:57.897Z,0.90
2023-01-11T00:32:24.571Z,1.20
2023-01-11T00:34:51.242Z,0.75
2023-01-11T00:37:17.872Z,0.77
2023-01-11T00:39:44.537Z,1.05
2023-01-11T00:42:30.777Z,0.82
2023-01-11T00:45:16.014Z,0.77
2023-01-11T00:47:57.725Z,0.63
2023-01-11T00:50:29.789Z,1.02
2023-01-11T00:52:57.199Z,1.00
2023-01-11T00:55:23.956Z,0.70
2023-01-11T00:57:50.612Z,1.00
2023-01-11T01:00:18.339Z,0.77
2023-01-11T01:02:45.089Z,0.77
2023-01-11T01:05:11.833Z,0.75
2023-01-11T01:07:38.610Z,0.70
2023-01-11T01:10:06.196Z,0.60
2023-01-11T01:12:52.788Z,0.60
2023-01-11T01:15:19.918Z,0.70
2023-01-11T01:17:46.912Z,0.70
2023-01-11T01:20:14.339Z,0.60
2023-01-11T01:22:41.410Z,0.60
2023-01-11T01:25:08.638Z,0.73
2023-01-11T01:27:35.302Z,0.80
2023-01-11T01:30:02.075Z,0.75
2023-01-11T01:32:28.710Z,0.60
2023-01-11T01:34:55.369Z,0.50
2023-01-11T01:37:22.009Z,0.60
2023-01-11T01:39:48.661Z,0.55
2023-01-11T01:42:16.786Z,0.50
2023-01-11T01:44:58.678Z,0.55
2023-01-11T01:47:37.471Z,0.73
2023-01-11T01:50:15.410Z,0.60
2023-01-11T01:52:42.089Z,0.60
2023-01-11T01:55:11.279Z,0.65
2023-01-11T01:57:38.258Z,0.50
2023-01-11T02:00:07.827Z,0.40
2023-01-11T02:02:34.730Z,0.70
2023-01-11T02:05:01.691Z,0.47
2023-01-11T02:07:34.057Z,0.30
2023-01-11T02:10:17.180Z,0.50
2023-01-11T02:13:02.068Z,0.57
2023-01-11T02:15:28.927Z,0.50
2023-01-11T02:17:55.588Z,0.32
2023-01-11T02:20:45.220Z,0.50
2023-01-11T02:23:44.102Z,0.52
2023-01-11T02:26:38.092Z,0.50
2023-01-11T02:29:24.738Z,0.40
2023-01-11T02:32:08.673Z,0.30
2023-01-11T02:34:42.028Z,0.55
2023-01-11T02:37:27.132Z,0.70
2023-01-11T02:40:07.395Z,0.77
2023-01-11T02:42:58.590Z,0.40
2023-01-11T02:46:07.341Z,0.50
2023-01-11T02:48:42.524Z,0.60
2023-01-11T02:51:15.204Z,0.32
2023-01-11T02:54:04.209Z,0.40
2023-01-11T02:56:32.750Z,0.30
2023-01-11T02:59:01.083Z,0.40
2023-01-11T03:01:27.777Z,0.40
2023-01-11T03:03:54.843Z,0.38
2023-01-11T03:07:08.419Z,0.30
2023-01-11T03:10:12.709Z,0.30
2023-01-11T03:13:13.409Z,0.40
2023-01-11T03:16:20.545Z,0.25
2023-01-11T03:18:50.190Z,0.50
2023-01-11T03:21:44.871Z,0.50
2023-01-11T03:24:21.603Z,0.28
2023-01-11T03:27:05.374Z,0.30
2023-01-11T03:29:49.053Z,0.32
2023-01-11T03:32:33.305Z,0.20
2023-01-11T03:35:15.120Z,0.20
2023-01-11T03:38:10.523Z,0.38
2023-01-11T03:40:58.389Z,0.50
2023-01-11T03:43:25.096Z,0.32
2023-01-11T03:46:09.640Z,0.20
2023-01-11T03:48:46.751Z,0.22
2023-01-11T03:51:15.419Z,0.28
2023-01-11T03:53:42.097Z,0.38
2023-01-11T03:56:10.867Z,0.20
2023-01-11T03:58:37.767Z,0.20
2023-01-11T04:01:04.578Z,0.30
2023-01-11T04:03:31.287Z,0.30
2023-01-11T04:06:00.240Z,0.20
2023-01-11T04:08:26.932Z,0.20
2023-01-11T04:10:53.754Z,0.20
2023-01-11T04:13:20.471Z,0.30
2023-01-11T04:15:47.185Z,0.30
2023-01-11T04:18:13.813Z,0.30
2023-01-11T04:20:40.843Z,0.40
2023-01-11T04:23:08.570Z,0.20
2023-01-11T04:25:35.258Z,0.20
2023-01-11T04:28:02.126Z,0.30
2023-01-11T04:30:28.802Z,0.32
2023-01-11T04:32:58.176Z,0.40
2023-01-11T04:35:25.390Z,0.38
2023-01-11T04:37:56.034Z,0.22
2023-01-11T04:40:23.348Z,0.45
2023-01-11T04:42:50.212Z,0.85
2023-01-11T04:45:17.086Z,0.30
2023-01-11T04:47:43.707Z,0.20
2023-01-11T04:50:11.957Z,0.20
2023-01-11T04:52:40.663Z,0.38
2023-01-11T04:55:08.096Z,0.98
2023-01-11T04:57:34.779Z,0.40
2023-01-11T05:00:01.453Z,0.45
2023-01-11T05:02:28.146Z,0.20
2023-01-11T05:04:54.872Z,0.30
2023-01-11T05:07:21.591Z,0.80
2023-01-11T05:09:48.266Z,0.50
2023-01-11T05:12:14.893Z,0.57
2023-01-11T05:14:41.580Z,0.90
2023-01-11T05:17:08.266Z,0.30
2023-01-11T05:19:36.169Z,0.35
2023-01-11T05:22:11.115Z,0.30
2023-01-11T05:24:37.925Z,0.38
2023-01-11T05:27:06.240Z,0.50
2023-01-11T05:29:33.019Z,0.60
2023-01-11T05:31:59.879Z,0.93
2023-01-11T05:34:26.625Z,1.92
2023-01-11T05:36:53.306Z,0.50
2023-01-11T05:39:20.099Z,0.40
2023-01-11T05:41:46.759Z,0.30
2023-01-11T05:44:32.072Z,0.40
2023-01-11T05:46:59.423Z,0.22
2023-01-11T05:49:26.263Z,0.35
2023-01-11T05:51:52.925Z,0.30
2023-01-11T05:54:19.668Z,0.30
2023-01-11T05:56:46.373Z,0.40
2023-01-11T05:59:13.152Z,0.30
2023-01-11T06:01:39.898Z,0.50
2023-01-11T06:04:06.650Z,0.50
2023-01-11T06:06:33.777Z,0.43
2023-01-11T06:09:00.506Z,0.65
2023-01-11T06:11:27.216Z,0.60
2023-01-11T06:13:53.931Z,0.45
2023-01-11T06:16:21.300Z,0.22
2023-01-11T06:18:50.781Z,0.40
2023-01-11T06:21:18.209Z,0.50
2023-01-11T06:23:46.846Z,0.40
2023-01-11T06:26:15.324Z,0.40
2023-01-11T06:28:42.507Z,0.30
2023-01-11T06:31:09.405Z,0.30
2023-01-11T06:33:36.383Z,0.47
2023-01-11T06:36:08.159Z,0.40
2023-01-11T06:38:35.289Z,0.47
2023-01-11T06:41:03.334Z,0.40
2023-01-11T06:43:30.654Z,0.47
2023-01-11T06:45:57.758Z,0.57
2023-01-11T06:48:24.885Z,0.50
2023-01-11T06:50:55.041Z,0.30
2023-01-11T06:53:22.217Z,0.90
2023-01-11T06:55:53.050Z,0.57
2023-01-11T06:58:20.540Z,0.55
2023-01-11T07:00:47.383Z,0.40
2023-01-11T07:03:14.107Z,0.43
2023-01-11T07:05:41.348Z,0.52
2023-01-11T07:08:08.333Z,0.60
2023-01-11T07:10:35.075Z,0.38
2023-01-11T07:13:02.033Z,0.40
2023-01-11T07:15:28.868Z,0.73
2023-01-11T07:17:56.901Z,0.90
2023-01-11T07:20:24.649Z,0.57
2023-01-11T07:22:51.595Z,0.60
2023-01-11T07:25:18.843Z,0.47
2023-01-11T07:27:45.664Z,0.65
2023-01-11T07:30:12.841Z,0.63
2023-01-11T07:32:39.660Z,0.95
2023-01-11T07:35:07.340Z,0.80
2023-01-11T07:37:35.407Z,1.05
2023-01-11T07:40:02.557Z,0.63
2023-01-11T07:42:47.967Z,0.63
2023-01-11T07:45:15.637Z,0.80
2023-01-11T07:47:42.718Z,1.58
2023-01-11T07:50:10.497Z,0.60
2023-01-11T07:52:37.561Z,0.60
2023-01-11T07:55:05.993Z,0.65
2023-01-11T07:57:33.258Z,0.50
2023-01-11T08:00:00.221Z,0.77
2023-01-11T08:02:27.318Z,0.82
2023-01-11T08:04:54.519Z,1.20
2023-01-11T08:07:21.422Z,0.90
2023-01-11T08:09:48.366Z,1.00
2023-01-11T08:12:33.672Z,0.88
2023-01-11T08:15:01.740Z,0.77
2023-01-11T08:17:28.667Z,0.68
2023-01-11T08:19:56.070Z,0.73
2023-01-11T08:22:23.151Z,0.50
2023-01-11T08:24:50.004Z,0.68
2023-01-11T08:27:16.908Z,0.47
2023-01-11T08:29:46.437Z,0.50
2023-01-11T08:32:13.764Z,0.47
2023-01-11T08:34:40.911Z,0.30
2023-01-11T08:37:07.780Z,0.40
2023-01-11T08:39:34.753Z,0.50
2023-01-11T08:42:03.279Z,0.20
2023-01-11T08:44:34.489Z,0.30
2023-01-11T08:47:03.197Z,0.60
2023-01-11T08:49:30.844Z,0.40
2023-01-11T08:51:57.865Z,0.50
2023-01-11T08:54:25.834Z,0.60
2023-01-11T08:56:52.874Z,0.60
2023-01-11T08:59:22.465Z,0.40
2023-01-11T09:01:49.592Z,0.50
2023-01-11T09:04:24.878Z,0.50
2023-01-11T09:06:53.282Z,0.60
2023-01-11T09:09:20.964Z,0.40
2023-01-11T09:11:57.454Z,0.50
2023-01-11T09:14:25.905Z,0.80
2023-01-11T09:16:53.689Z,0.60
2023-01-11T09:19:21.217Z,0.60
2023-01-11T09:21:48.172Z,0.80
2023-01-11T09:24:15.877Z,0.80
2023-01-11T09:26:43.806Z,0.70
2023-01-11T09:29:11.555Z,0.70
2023-01-11T09:31:38.421Z,0.60
2023-01-11T09:34:07.075Z,0.60
2023-01-11T09:36:36.926Z,0.90
2023-01-11T09:39:08.455Z,0.77
2023-01-11T09:42:11.331Z,1.40
2023-01-11T09:44:46.717Z,0.60
2023-01-11T09:47:17.876Z,0.68
2023-01-11T09:49:56.185Z,0.60
2023-01-11T09:52:38.250Z,0.70
2023-01-11T09:55:05.568Z,0.57
2023-01-11T09:57:38.354Z,0.50
2023-01-11T10:00:11.969Z,0.60
2023-01-11T10:02:38.594Z,0.80
2023-01-11T10:05:23.537Z,0.70
2023-01-11T10:18:39.495Z,0.98
2023-01-11T10:19:49.694Z,0.88
2023-01-11T10:22:31.844Z,1.08
2023-01-11T10:25:35.215Z,0.70
2023-01-11T10:28:07.741Z,1.17
2023-01-11T10:30:52.143Z,0.90
2023-01-11T10:33:49.743Z,1.60
2023-01-11T10:36:43.248Z,1.10
2023-01-11T10:42:21.770Z,0.77
2023-01-11T10:45:00.562Z,0.80
2023-01-11T10:47:32.437Z,0.68
2023-01-11T10:50:05.037Z,0.47
2023-01-11T10:52:41.762Z,0.80
2023-01-11T10:55:18.545Z,0.50
2023-01-11T10:58:03.575Z,0.90
2023-01-11T11:01:05.735Z,0.80
2023-01-11T11:04:12.347Z,1.20
2023-01-11T11:06:47.348Z,0.60
2023-01-11T11:09:43.260Z,1.20
2023-01-11T11:12:26.201Z,0.65
2023-01-11T11:15:14.166Z,0.45
2023-01-11T11:17:42.138Z,0.50
2023-01-11T11:20:27.381Z,0.45
2023-01-11T11:22:55.079Z,0.63
2023-01-11T11:25:28.813Z,0.60
2023-01-11T11:28:07.654Z,0.80
2023-01-11T11:30:37.599Z,0.50
2023-01-11T11:33:36.080Z,1.30
2023-01-11T11:36:09.401Z,2.38
2023-01-11T11:39:05.203Z,2.08
2023-01-11T11:41:33.512Z,1.77
2023-01-11T11:44:19.180Z,1.77
2023-01-11T11:47:17.089Z,2.15
2023-01-11T11:49:48.161Z,2.33
2023-01-11T11:52:16.793Z,1.60
2023-01-11T11:54:49.901Z,1.60
2023-01-11T11:57:28.438Z,0.70
2023-01-11T12:00:04.228Z,1.10
2023-01-11T12:02:32.547Z,1.40
2023-01-11T12:05:01.530Z,0.60
2023-01-11T12:07:40.413Z,0.68
2023-01-11T12:10:19.057Z,0.57
2023-01-11T12:13:10.737Z,0.70
2023-01-11T12:15:38.261Z,0.80
2023-01-11T12:18:37.123Z,1.10
2023-01-11T12:21:16.859Z,0.95
2023-01-11T12:23:44.490Z,1.00
2023-01-11T12:26:22.725Z,1.10
2023-01-11T12:29:14.551Z,0.90
2023-01-11T12:32:04.194Z,0.75
2023-01-11T12:34:52.829Z,1.00
2023-01-11T12:37:25.770Z,1.23
2023-01-11T12:42:38.797Z,0.90
2023-01-11T12:45:31.596Z,0.80
2023-01-11T12:48:09.628Z,0.90
2023-01-11T12:50:59.595Z,1.35
2023-01-11T12:54:00.516Z,1.55
2023-01-11T12:56:36.812Z,1.20
2023-01-11T12:59:32.737Z,0.88
2023-01-11T13:02:18.804Z,1.00
2023-01-11T13:05:23.880Z,1.38
2023-01-11T13:08:20.947Z,0.90
2023-01-11T13:10:57.260Z,2.03
2023-01-11T13:14:12.687Z,5.20
2023-01-11T13:17:04.640Z,1.80
2023-01-11T13:20:01.413Z,1.20
2023-01-11T13:22:33.504Z,1.33
2023-01-11T13:25:02.237Z,1.08
2023-01-11T13:27:31.462Z,1.20
2023-01-11T13:30:00.172Z,1.20
2023-01-11T13:32:38.856Z,1.40
2023-01-11T13:35:34.854Z,1.30
2023-01-11T13:38:28.040Z,0.70
2023-01-11T13:40:57.090Z,1.02
2023-01-11T13:43:42.547Z,0.95
2023-01-11T13:46:34.420Z,1.30
2023-01-11T13:49:08.436Z,1.35
2023-01-11T13:51:41.867Z,1.17
2023-01-11T13:54:14.072Z,0.90
2023-01-11T13:56:47.521Z,1.40
2023-01-11T13:59:32.791Z,2.55
2023-01-11T14:02:01.422Z,1.48
2023-01-11T14:04:47.866Z,1.85
2023-01-11T14:07:23.886Z,1.73
2023-01-11T14:10:13.032Z,1.50
2023-01-11T14:13:07.551Z,1.75
2023-01-11T14:15:58.237Z,1.27
2023-01-11T14:18:41.469Z,0.75
2023-01-11T14:21:22.789Z,1.10
2023-01-11T14:23:51.353Z,1.05
2023-01-11T14:26:36.433Z,0.90
2023-01-11T14:29:25.771Z,1.77
2023-01-11T14:32:17.508Z,1.20
2023-01-11T14:35:18.746Z,0.63
2023-01-11T14:38:01.716Z,0.80
2023-01-11T14:40:49.738Z,1.50
2023-01-11T14:43:29.144Z,0.82
2023-01-11T14:46:41.665Z,0.65
2023-01-11T14:49:17.282Z,0.80
2023-01-11T14:51:44.195Z,0.60
2023-01-11T14:54:22.757Z,0.82
2023-01-11T14:56:54.741Z,0.80
2023-01-11T14:59:29.212Z,0.65
2023-01-11T15:02:05.512Z,1.30
2023-01-11T15:04:34.790Z,1.02
2023-01-11T15:07:02.498Z,0.93
2023-01-11T15:09:44.031Z,0.50
2023-01-11T15:12:39.492Z,0.90
2023-01-11T15:15:20.308Z,1.00
2023-01-11T15:18:11.867Z,0.95
2023-01-11T15:20:57.224Z,0.60
2023-01-11T15:23:24.259Z,0.98
2023-01-11T15:26:03.048Z,0.52
2023-01-11T15:28:38.323Z,1.05
2023-01-11T15:31:05.763Z,0.70
2023-01-11T15:33:51.511Z,0.70
2023-01-11T15:36:18.692Z,0.93
2023-01-11T15:39:06.217Z,1.42
2023-01-11T15:42:04.428Z,1.25
2023-01-11T15:44:49.386Z,1.00
2023-01-11T15:47:28.479Z,1.75
2023-01-11T15:50:26.386Z,1.00
2023-01-11T15:53:16.425Z,1.60
2023-01-11T15:55:58.682Z,0.98
2023-01-11T15:58:31.677Z,3.13
2023-01-11T16:01:24.612Z,1.90
2023-01-11T16:03:55.909Z,2.20
2023-01-11T16:06:29.034Z,2.88
2023-01-11T16:11:58.642Z,2.95
2023-01-11T16:15:05.990Z,3.47
2023-01-11T16:17:33.290Z,3.20
2023-01-11T16:20:26.477Z,5.25
2023-01-11T16:23:00.718Z,5.07
2023-01-11T16:25:40.546Z,2.80
2023-01-11T16:28:18.808Z,1.92
2023-01-11T16:30:46.859Z,1.95
2023-01-11T16:33:23.247Z,2.30
2023-01-11T16:36:19.120Z,2.40
2023-01-11T16:39:07.572Z,2.60
2023-01-11T16:41:53.324Z,2.80
2023-01-11T16:44:41.339Z,3.10
2023-01-11T16:47:14.104Z,2.40
2023-01-11T16:49:42.620Z,3.15
2023-01-11T16:53:01.261Z,2.20
2023-01-11T16:55:37.945Z,2.97
2023-01-11T16:58:08.164Z,2.78
2023-01-11T17:00:39.978Z,3.03
2023-01-11T17:03:20.651Z,3.72
2023-01-11T17:05:55.726Z,2.63
2023-01-11T17:08:35.125Z,3.10
2023-01-11T17:11:22.163Z,3.15
2023-01-11T17:14:16.914Z,5.00
2023-01-11T17:16:49.094Z,3.30
2023-01-11T17:19:22.530Z,3.10
2023-01-11T17:21:54.486Z,2.97
2023-01-11T17:24:26.296Z,2.72
2023-01-11T17:26:56.113Z,2.65
2023-01-11T17:29:33.067Z,3.03
2023-01-11T17:32:00.819Z,5.43
2023-01-11T17:34:32.836Z,5.55
2023-01-11T17:36:59.794Z,4.68
2023-01-11T17:39:35.073Z,3.90
2023-01-11T17:42:21.809Z,2.90
2023-01-11T17:45:07.530Z,2.25
2023-01-11T17:47:35.281Z,2.20
2023-01-11T17:50:03.092Z,1.60
2023-01-11T17:52:43.786Z,2.03
2023-01-11T17:55:21.554Z,1.95
2023-01-11T17:58:10.482Z,1.77
2023-01-11T18:00:38.488Z,1.50
2023-01-11T18:03:14.727Z,1.52
2023-01-11T18:05:44.506Z,1.05
2023-01-11T18:08:21.114Z,0.82
2023-01-11T18:10:56.317Z,0.70
2023-01-11T18:13:31.597Z,0.77
2023-01-11T18:15:58.459Z,0.90
2023-01-11T18:18:42.317Z,0.82
2023-01-11T18:21:40.494Z,1.48
2023-01-11T18:24:14.398Z,1.30
2023-01-11T18:26:42.640Z,3.50
2023-01-11T18:29:37.531Z,3.00
2023-01-11T18:32:05.488Z,1.88
2023-01-11T18:34:32.407Z,2.78
2023-01-11T18:37:00.098Z,2.13
2023-01-11T18:39:26.832Z,1.27
2023-01-11T18:42:08.778Z,1.65
2023-01-11T18:44:40.215Z,1.52
2023-01-11T18:47:15.779Z,1.60
2023-01-11T18:49:42.534Z,1.88
2023-01-11T18:52:09.898Z,2.50
2023-01-11T18:54:37.111Z,2.65
2023-01-11T18:57:05.114Z,2.15
2023-01-11T18:59:31.853Z,2.40
2023-01-11T19:04:51.839Z,2.38
2023-01-11T19:07:18.585Z,2.42
2023-01-11T19:09:45.635Z,2.67
2023-01-11T19:12:13.137Z,2.55
2023-01-11T19:14:40.387Z,1.85
2023-01-11T19:17:08.826Z,2.00
2023-01-11T19:19:35.938Z,2.45
2023-01-11T19:22:03.230Z,1.70
2023-01-11T19:24:30.205Z,1.48
2023-01-11T19:26:57.040Z,1.85
2023-01-11T19:29:24.867Z,2.00
2023-01-11T19:31:52.646Z,1.60
2023-01-11T19:34:19.846Z,1.73
2023-01-11T19:36:46.545Z,2.00
2023-01-11T19:39:13.288Z,2.50
2023-01-11T19:41:55.099Z,3.25
2023-01-11T19:44:22.424Z,2.97
2023-01-11T19:46:53.104Z,2.40
2023-01-11T19:49:27.515Z,3.60
2023-01-11T19:51:54.590Z,2.97
2023-01-11T19:54:22.202Z,4.90
2023-01-11T19:56:51.756Z,2.80
2023-01-11T19:59:19.211Z,1.75
2023-01-11T20:01:46.419Z,1.90
2023-01-11T20:04:15.258Z,2.13
2023-01-11T20:06:52.302Z,2.90
2023-01-11T20:09:20.059Z,2.28
2023-01-11T20:11:49.415Z,1.70
2023-01-11T20:14:17.336Z,2.15
2023-01-11T20:16:45.980Z,1.95
2023-01-11T20:19:14.732Z,2.28
2023-01-11T20:21:41.908Z,1.75
2023-01-11T20:24:12.267Z,2.08
2023-01-11T20:26:40.086Z,1.70
2023-01-11T20:29:20.589Z,2.67
2023-01-11T20:31:49.782Z,1.95
2023-01-11T20:34:19.492Z,2.15
2023-01-11T20:36:52.516Z,1.95
2023-01-11T20:39:20.117Z,2.00
2023-01-11T20:41:47.301Z,2.72
2023-01-11T20:44:27.144Z,3.03
2023-01-11T20:46:55.439Z,2.70
2023-01-11T20:49:24.013Z,2.85
2023-01-11T20:51:50.761Z,3.15
2023-01-11T20:54:17.641Z,3.10
2023-01-11T20:56:46.637Z,2.85
2023-01-11T20:59:16.520Z,2.45
2023-01-11T21:01:44.007Z,2.90
2023-01-11T21:04:13.363Z,3.00
2023-01-11T21:06:43.945Z,2.28
2023-01-11T21:09:12.965Z,2.60
2023-01-11T21:11:41.159Z,2.70
2023-01-11T21:14:12.192Z,2.63
2023-01-11T21:16:42.811Z,2.88
2023-01-11T21:19:11.409Z,3.28
2023-01-11T21:21:38.089Z,3.70
2023-01-11T21:24:05.691Z,3.05
2023-01-11T21:26:32.705Z,4.60
2023-01-11T21:29:03.659Z,4.22
2023-01-11T21:31:32.151Z,3.83
2023-01-11T21:33:59.078Z,2.97
2023-01-11T21:36:27.289Z,2.50
2023-01-11T21:38:55.033Z,2.80
2023-01-11T21:41:43.446Z,2.53
2023-01-11T21:44:11.601Z,2.08
2023-01-11T21:46:38.711Z,2.22
2023-01-11T21:49:08.521Z,2.75
2023-01-11T21:51:36.698Z,3.55
2023-01-11T21:54:05.423Z,2.42
2023-01-11T21:56:32.369Z,2.22
2023-01-11T21:58:59.456Z,2.05
2023-01-11T22:01:26.251Z,1.48
2023-01-11T22:03:53.204Z,1.40
2023-01-11T22:06:20.045Z,2.53
2023-01-11T22:08:46.979Z,1.85
2023-01-11T22:11:15.306Z,1.60
2023-01-11T22:13:43.438Z,1.98
2023-01-11T22:16:15.068Z,1.88
2023-01-11T22:18:42.263Z,2.58
2023-01-11T22:21:13.988Z,1.80
2023-01-11T22:23:41.401Z,2.17
2023-01-11T22:26:19.733Z,1.35
2023-01-11T22:29:06.048Z,2.17
2023-01-11T22:31:33.398Z,1.55
2023-01-11T22:34:00.469Z,1.67
2023-01-11T22:36:28.088Z,1.50
2023-01-11T22:38:54.918Z,1.45
2023-01-11T22:41:21.774Z,1.67
2023-01-11T22:43:48.608Z,1.70
2023-01-11T22:46:17.411Z,1.20
2023-01-11T22:48:44.234Z,1.48
2023-01-11T22:51:11.444Z,1.30
2023-01-11T22:53:38.919Z,1.80
2023-01-11T22:56:06.530Z,1.17
2023-01-11T22:58:33.525Z,1.58
2023-01-11T23:01:17.612Z,1.95
2023-01-11T23:03:45.339Z,1.98
2023-01-11T23:06:12.432Z,1.60
2023-01-11T23:08:42.814Z,2.13
2023-01-11T23:11:15.708Z,2.53
2023-01-11T23:13:55.280Z,1.40
2023-01-11T23:16:23.004Z,1.05
2023-01-11T23:18:49.842Z,1.63
2023-01-11T23:21:17.078Z,1.40
2023-01-11T23:23:43.857Z,1.50
2023-01-11T23:26:12.269Z,1.48
2023-01-11T23:28:39.519Z,1.50
2023-01-11T23:31:17.142Z,1.23
2023-01-11T23:33:48.454Z,1.00
2023-01-11T23:36:16.187Z,1.45
2023-01-11T23:38:43.255Z,1.58
2023-01-11T23:41:33.507Z,1.33
2023-01-11T23:44:00.676Z,1.17
2023-01-11T23:46:45.899Z,1.42
2023-01-11T23:49:15.890Z,1.33
2023-01-11T23:51:42.837Z,1.55
2023-01-11T23:54:09.929Z,1.17
2023-01-11T23:56:36.758Z,1.77
2023-01-11T23:59:04.829Z,1.30
